createdAt,value
2019-03-04T00:01:36.241Z,12.54
2019-03-04T00:06:30.126Z,12.64
2019-03-04T00:11:23.994Z,12.63
2019-03-04T00:16:18.125Z,12.66
2019-03-04T00:21:11.984Z,12.66
2019-03-04T00:26:05.844Z,12.67
2019-03-04T00:31:00.028Z,12.69
2019-03-04T00:35:53.875Z,12.73
2019-03-04T00:40:47.778Z,12.78
2019-03-04T00:45:41.775Z,12.73
2019-03-04T00:50:35.721Z,12.74
2019-03-04T00:55:29.694Z,12.78
2019-03-04T01:00:24.678Z,12.82
2019-03-04T01:05:18.643Z,12.90
2019-03-04T01:10:14.078Z,12.89
2019-03-04T01:15:10.658Z,12.95
2019-03-04T01:20:07.930Z,13.00
2019-03-04T01:25:05.416Z,13.02
2019-03-04T01:29:59.380Z,12.96
2019-03-04T01:34:53.227Z,13.01
2019-03-04T01:39:47.119Z,13.01
2019-03-04T01:44:41.219Z,12.98
2019-03-04T01:49:35.116Z,12.87
2019-03-04T01:54:28.986Z,12.84
2019-03-04T01:59:22.930Z,12.87
2019-03-04T02:04:16.789Z,12.81
2019-03-04T02:09:11.145Z,12.76
2019-03-04T02:14:05.118Z,12.68
2019-03-04T02:18:59.128Z,12.65
2019-03-04T02:23:52.976Z,12.68
2019-03-04T02:28:46.845Z,12.64
2019-03-04T02:33:40.710Z,12.55
2019-03-04T02:38:34.540Z,12.52
2019-03-04T02:43:28.398Z,12.52
2019-03-04T02:48:22.294Z,12.47
2019-03-04T02:53:16.147Z,12.49
2019-03-04T02:58:10.103Z,12.59
2019-03-04T03:03:04.053Z,12.59
2019-03-04T03:07:57.909Z,12.69
2019-03-04T03:12:51.758Z,12.78
2019-03-04T03:17:45.832Z,12.94
2019-03-04T03:22:39.710Z,13.16
2019-03-04T03:27:33.549Z,13.24
2019-03-04T03:32:27.406Z,13.35
2019-03-04T03:37:21.277Z,13.41
2019-03-04T03:42:15.158Z,13.31
2019-03-04T03:47:09.041Z,13.18
2019-03-04T03:52:03.004Z,13.12
2019-03-04T03:56:56.990Z,13.01
2019-03-04T04:01:50.837Z,12.97
2019-03-04T04:06:44.716Z,12.94
2019-03-04T04:11:38.560Z,13.03
2019-03-04T04:16:32.438Z,13.11
2019-03-04T04:21:26.301Z,13.28
2019-03-04T04:26:20.319Z,13.28
2019-03-04T04:31:14.168Z,13.17
2019-03-04T04:36:08.022Z,13.13
2019-03-04T04:41:01.906Z,13.05
2019-03-04T04:45:55.765Z,13.00
2019-03-04T04:50:49.634Z,12.89
2019-03-04T04:55:43.494Z,12.88
2019-03-04T05:00:37.455Z,12.82
2019-03-04T05:05:31.425Z,12.68
2019-03-04T05:10:25.290Z,12.80
2019-03-04T05:15:19.152Z,12.72
2019-03-04T05:20:22.132Z,12.68
2019-03-04T05:25:16.103Z,12.65
2019-03-04T05:30:12.965Z,12.62
2019-03-04T05:35:07.018Z,12.63
2019-03-04T05:40:00.928Z,12.71
2019-03-04T05:44:54.787Z,12.65
2019-03-04T05:49:48.680Z,12.82
2019-03-04T05:54:42.504Z,12.84
2019-03-04T05:59:36.365Z,12.84
2019-03-04T06:04:30.412Z,12.86
2019-03-04T06:09:24.263Z,12.87
2019-03-04T06:14:18.131Z,12.88
2019-03-04T06:19:12.004Z,7.02
2019-03-04T06:24:05.854Z,6.39
2019-03-04T06:28:59.708Z,6.41
2019-03-04T06:33:53.577Z,6.22
2019-03-04T06:38:47.416Z,6.22
2019-03-04T06:43:41.268Z,6.09
2019-03-04T06:48:35.277Z,6.07
2019-03-04T06:53:42.224Z,6.17
2019-03-04T06:58:42.705Z,6.34
2019-03-04T07:03:36.645Z,6.54
2019-03-04T07:08:37.439Z,6.83
2019-03-04T07:13:31.449Z,6.97
2019-03-04T07:18:25.295Z,7.07
2019-03-04T07:23:19.173Z,7.13
2019-03-04T07:28:13.053Z,7.21
2019-03-04T07:33:06.917Z,7.33
2019-03-04T07:38:16.423Z,7.35
2019-03-04T07:43:10.325Z,7.31
2019-03-04T07:48:04.293Z,7.58
2019-03-04T07:52:58.176Z,7.74
2019-03-04T07:57:52.064Z,7.82
2019-03-04T08:02:45.898Z,8.10
2019-03-04T08:07:45.368Z,8.18
2019-03-04T08:12:48.953Z,8.17
2019-03-04T08:17:43.128Z,8.22
2019-03-04T08:22:37.162Z,8.26
2019-03-04T08:27:31.032Z,8.34
2019-03-04T08:32:25.022Z,8.39
2019-03-04T08:37:19.507Z,8.37
2019-03-04T08:42:13.363Z,9.06
2019-03-04T08:47:07.312Z,9.14
2019-03-04T08:52:01.173Z,9.14
2019-03-04T08:57:03.672Z,9.19
2019-03-04T09:01:50.944Z,9.26
2019-03-04T09:06:44.817Z,9.34
2019-03-04T09:11:38.685Z,9.58
2019-03-04T09:16:32.570Z,10.14
2019-03-04T09:21:26.440Z,10.53
2019-03-04T09:26:20.325Z,10.50
2019-03-04T09:31:14.176Z,10.48
2019-03-04T09:36:08.134Z,11.09
2019-03-04T09:41:02.028Z,11.41
2019-03-04T09:45:56.002Z,10.84
2019-03-04T09:50:49.902Z,10.45
2019-03-04T09:55:43.867Z,10.27
2019-03-04T10:00:44.610Z,10.24
2019-03-04T10:05:45.030Z,10.58
2019-03-04T10:10:48.451Z,11.94
2019-03-04T10:15:46.155Z,12.37
2019-03-04T10:20:59.214Z,11.76
2019-03-04T10:26:22.301Z,11.73
2019-03-04T10:31:33.110Z,11.66
2019-03-04T10:36:30.956Z,11.51
2019-03-04T10:41:37.425Z,11.60
2019-03-04T10:46:41.136Z,11.67
2019-03-04T10:51:35.013Z,11.78
2019-03-04T10:56:28.995Z,12.07
2019-03-04T11:01:30.148Z,12.15
2019-03-04T11:06:18.881Z,12.66
2019-03-04T11:11:12.777Z,12.40
2019-03-04T11:16:06.650Z,12.68
2019-03-04T11:21:00.536Z,12.15
2019-03-04T11:25:54.445Z,11.74
2019-03-04T11:30:48.502Z,10.07
2019-03-04T11:35:42.411Z,7.89
2019-03-04T11:40:38.995Z,6.79
2019-03-04T11:45:33.066Z,6.44
2019-03-04T11:50:27.044Z,6.38
2019-03-04T11:55:24.414Z,6.31
2019-03-04T12:00:23.199Z,6.11
2019-03-04T12:05:17.053Z,6.17
2019-03-04T12:10:13.551Z,6.44
2019-03-04T12:15:11.032Z,6.81
2019-03-04T12:20:07.009Z,7.09
2019-03-04T12:25:00.988Z,7.20
2019-03-04T12:29:54.958Z,7.84
2019-03-04T12:34:48.916Z,8.09
2019-03-04T12:39:42.783Z,7.81
2019-03-04T12:44:36.667Z,7.99
2019-03-04T12:49:30.551Z,8.46
2019-03-04T12:54:24.519Z,9.91
2019-03-04T12:59:18.376Z,11.34
2019-03-04T13:04:12.401Z,8.57
2019-03-04T13:09:14.100Z,9.43
2019-03-04T13:14:02.233Z,11.63
2019-03-04T13:18:56.091Z,11.27
2019-03-04T13:23:49.964Z,10.57
2019-03-04T13:28:43.843Z,12.67
2019-03-04T13:33:37.724Z,14.95
2019-03-04T13:38:31.605Z,11.96
2019-03-04T13:43:25.456Z,10.58
2019-03-04T13:48:19.356Z,11.14
2019-03-04T13:53:13.240Z,14.56
2019-03-04T13:58:07.336Z,15.63
2019-03-04T14:03:01.220Z,13.74
2019-03-04T14:07:55.107Z,13.77
2019-03-04T14:12:49.205Z,11.24
2019-03-04T14:17:43.174Z,10.06
2019-03-04T14:22:40.286Z,10.44
2019-03-04T14:27:33.047Z,9.78
2019-03-04T14:32:27.026Z,10.07
2019-03-04T14:37:21.899Z,10.55
2019-03-04T14:42:16.003Z,11.29
2019-03-04T14:47:10.020Z,10.68
2019-03-04T14:52:04.120Z,12.16
2019-03-04T14:56:58.007Z,13.54
2019-03-04T15:01:51.873Z,11.56
2019-03-04T15:06:45.844Z,12.80
2019-03-04T15:11:39.822Z,20.06
2019-03-04T15:16:33.807Z,19.59
2019-03-04T15:21:27.676Z,15.40
2019-03-04T15:26:21.670Z,15.79
2019-03-04T15:31:15.560Z,18.02
2019-03-04T15:36:09.389Z,19.13
2019-03-04T15:41:03.297Z,19.65
2019-03-04T15:45:59.185Z,16.84
2019-03-04T15:50:55.421Z,14.55
2019-03-04T15:55:49.281Z,13.04
2019-03-04T16:00:43.262Z,12.43
2019-03-04T16:05:37.333Z,13.03
2019-03-04T16:10:36.505Z,13.95
2019-03-04T16:15:30.530Z,13.48
2019-03-04T16:20:24.399Z,12.23
2019-03-04T16:25:18.743Z,10.89
2019-03-04T16:30:20.506Z,10.34
2019-03-04T16:35:14.688Z,9.97
2019-03-04T16:40:11.979Z,9.92
2019-03-04T16:45:09.532Z,9.71
2019-03-04T16:50:11.826Z,9.51
2019-03-04T16:55:08.799Z,9.26
2019-03-04T17:00:05.889Z,9.03
2019-03-04T17:04:59.863Z,8.72
2019-03-04T17:09:53.827Z,8.44
2019-03-04T17:14:47.706Z,8.24
2019-03-04T17:19:41.687Z,7.99
2019-03-04T17:24:35.773Z,7.91
2019-03-04T17:29:29.717Z,7.86
2019-03-04T17:34:23.598Z,7.94
2019-03-04T17:39:17.611Z,7.98
2019-03-04T17:44:15.298Z,7.81
2019-03-04T17:49:09.206Z,7.99
2019-03-04T17:54:03.296Z,8.01
2019-03-04T17:58:57.264Z,7.96
2019-03-04T18:03:51.191Z,7.89
2019-03-04T18:13:45.448Z,7.79
2019-03-04T18:18:39.330Z,7.75
2019-03-04T18:23:33.222Z,7.72
2019-03-04T18:28:40.078Z,7.70
2019-03-04T18:34:11.675Z,7.57
2019-03-04T18:39:27.533Z,7.44
2019-03-04T18:44:39.884Z,7.47
2019-03-04T18:49:33.946Z,7.42
2019-03-04T18:54:27.928Z,7.42
2019-03-04T18:59:21.803Z,7.26
2019-03-04T19:04:16.001Z,7.23
2019-03-04T19:09:10.131Z,7.15
2019-03-04T19:14:04.260Z,7.20
2019-03-04T19:18:58.307Z,7.13
2019-03-04T19:23:52.297Z,7.13
2019-03-04T19:28:46.287Z,7.11
2019-03-04T19:33:40.295Z,7.11
2019-03-04T19:38:34.261Z,7.14
2019-03-04T19:43:33.130Z,7.13
2019-03-04T19:48:27.050Z,7.18
2019-03-04T19:53:21.079Z,7.10
2019-03-04T19:58:15.059Z,6.96
2019-03-04T20:03:09.147Z,6.83
2019-03-04T20:08:03.454Z,6.81
2019-03-04T20:12:57.586Z,6.73
2019-03-04T20:17:52.371Z,6.70
2019-03-04T20:22:46.477Z,6.85
2019-03-04T20:27:40.465Z,6.96
2019-03-04T20:32:34.448Z,7.09
2019-03-04T20:37:28.400Z,7.27
2019-03-04T20:42:22.372Z,7.30
2019-03-04T20:47:16.344Z,7.40
2019-03-04T20:52:10.415Z,7.43
2019-03-04T20:57:04.474Z,7.48
2019-03-04T21:01:58.337Z,7.58
2019-03-04T21:06:52.368Z,7.14
2019-03-04T21:11:46.352Z,5.97
2019-03-04T21:16:40.333Z,5.84
2019-03-04T21:21:34.355Z,5.55
2019-03-04T21:26:28.535Z,5.40
2019-03-04T21:31:44.758Z,5.43
2019-03-04T21:37:05.305Z,5.42
2019-03-04T21:42:02.996Z,5.48
2019-03-04T21:47:12.415Z,5.51
2019-03-04T21:52:20.225Z,5.56
2019-03-04T21:57:24.856Z,5.67
2019-03-04T22:02:23.599Z,5.74
2019-03-04T22:07:17.705Z,5.76
2019-03-04T22:12:12.735Z,5.96
2019-03-04T22:17:07.035Z,6.07
2019-03-04T22:22:01.218Z,6.17
2019-03-04T22:26:55.143Z,6.34
2019-03-04T22:31:49.079Z,6.45
2019-03-04T22:36:42.939Z,6.58
2019-03-04T22:41:36.926Z,6.69
2019-03-04T22:46:30.819Z,6.83
2019-03-04T22:51:24.681Z,6.93
2019-03-04T22:56:18.569Z,7.05
2019-03-04T23:01:18.136Z,7.16
2019-03-04T23:06:21.521Z,7.20
2019-03-04T23:11:16.269Z,7.24
2019-03-04T23:16:13.386Z,7.27
2019-03-04T23:21:07.391Z,7.21
2019-03-04T23:26:01.353Z,7.20
2019-03-04T23:30:55.206Z,7.19
2019-03-04T23:35:49.077Z,7.26
2019-03-04T23:40:43.234Z,7.32
2019-03-04T23:45:37.515Z,7.29
2019-03-04T23:50:31.524Z,7.27
2019-03-04T23:55:25.419Z,7.22
